createdAt,value
2022-12-08T00:02:03.867Z,99947.03
2022-12-08T00:04:52.292Z,99947.91
2022-12-08T00:07:37.795Z,99950.59
2022-12-08T00:10:25.091Z,99951.47
2022-12-08T00:12:57.562Z,99953.22
2022-12-08T00:15:26.975Z,99912.97
2022-12-08T00:17:55.150Z,99944.50
2022-12-08T00:20:25.385Z,99941.84
2022-12-08T00:22:53.369Z,99948.00
2022-12-08T00:25:23.963Z,99941.84
2022-12-08T00:27:54.185Z,99936.59
2022-12-08T00:30:22.234Z,99926.06
2022-12-08T00:32:55.290Z,99932.19
2022-12-08T00:35:25.612Z,99929.56
2022-12-08T00:38:00.440Z,99930.44
2022-12-08T00:40:31.317Z,99926.03
2022-12-08T00:42:59.476Z,99923.38
2022-12-08T00:45:27.402Z,99923.34
2022-12-08T00:47:56.824Z,99928.63
2022-12-08T00:50:24.902Z,99922.47
2022-12-08T00:52:52.873Z,99915.44
2022-12-08T00:55:20.944Z,99919.81
2022-12-08T00:57:54.481Z,99905.78
2022-12-08T01:00:22.726Z,99907.53
2022-12-08T01:02:50.755Z,99895.25
2022-12-08T01:05:25.219Z,99891.75
2022-12-08T01:07:53.294Z,99901.44
2022-12-08T01:10:23.825Z,99890.88
2022-12-08T01:12:52.194Z,99891.81
2022-12-08T01:15:21.075Z,99890.94
2022-12-08T01:17:49.053Z,99890.94
2022-12-08T01:20:17.290Z,99887.44
2022-12-08T01:22:46.806Z,99883.06
2022-12-08T01:25:17.433Z,99886.59
2022-12-08T01:27:48.296Z,99878.69
2022-12-08T01:30:16.579Z,99886.56
2022-12-08T01:32:44.769Z,99887.44
2022-12-08T01:35:13.723Z,99895.31
2022-12-08T01:37:41.675Z,99892.69
2022-12-08T01:40:11.846Z,99893.53
2022-12-08T01:42:42.898Z,99890.88
2022-12-08T01:47:41.867Z,99889.13
2022-12-08T01:50:12.792Z,99891.78
2022-12-08T01:52:48.570Z,99881.28
2022-12-08T01:55:20.096Z,99888.28
2022-12-08T01:57:51.791Z,99876.91
2022-12-08T02:00:22.742Z,99894.44
2022-12-08T02:02:59.963Z,99879.53
2022-12-08T02:05:34.138Z,99882.16
2022-12-08T02:08:07.882Z,99870.78
2022-12-08T02:10:39.066Z,99862.88
2022-12-08T02:13:10.557Z,99871.63
2022-12-08T02:15:43.969Z,99869.88
2022-12-08T02:18:30.601Z,99869.91
2022-12-08T02:21:05.117Z,99863.72
2022-12-08T02:23:42.455Z,99861.09
2022-12-08T02:26:46.063Z,99869.00
2022-12-08T02:29:49.312Z,99864.59
2022-12-08T02:32:37.444Z,99859.31
2022-12-08T02:35:12.077Z,99852.31
2022-12-08T02:37:48.126Z,99850.56
2022-12-08T02:40:23.758Z,99829.56
2022-12-08T02:42:58.478Z,99847.91
2022-12-08T02:45:31.417Z,99835.56
2022-12-08T02:48:00.626Z,99834.69
2022-12-08T02:50:30.149Z,99842.53
2022-12-08T02:52:58.270Z,99838.09
2022-12-08T02:55:28.882Z,99840.72
2022-12-08T02:58:21.296Z,99843.31
2022-12-08T03:01:08.456Z,99834.56
2022-12-08T03:03:46.517Z,99837.19
2022-12-08T03:06:26.660Z,99838.91
2022-12-08T03:09:01.295Z,99839.78
2022-12-08T03:11:34.593Z,99826.63
2022-12-08T03:14:03.739Z,99823.09
2022-12-08T03:16:34.155Z,99820.44
2022-12-08T03:19:10.139Z,99818.69
2022-12-08T03:21:45.615Z,99815.16
2022-12-08T03:24:14.749Z,99820.44
2022-12-08T03:26:47.607Z,99812.50
2022-12-08T03:29:16.105Z,99817.78
2022-12-08T03:31:50.697Z,99810.75
2022-12-08T03:34:19.775Z,99806.34
2022-12-08T03:36:51.671Z,99800.22
2022-12-08T03:39:21.830Z,99801.97
2022-12-08T03:41:50.164Z,99793.19
2022-12-08T03:44:20.581Z,99791.41
2022-12-08T03:46:48.667Z,99792.28
2022-12-08T03:49:16.758Z,99786.16
2022-12-08T03:51:44.893Z,99784.38
2022-12-08T03:54:16.375Z,99778.16
2022-12-08T03:56:45.011Z,99780.81
2022-12-08T03:59:17.556Z,99778.19
2022-12-08T04:01:45.811Z,99779.97
2022-12-08T04:04:14.130Z,99769.47
2022-12-08T04:06:42.125Z,99777.38
2022-12-08T04:09:12.789Z,99772.06
2022-12-08T04:11:42.168Z,99772.94
2022-12-08T04:14:13.458Z,99770.34
2022-12-08T04:16:43.580Z,99761.59
2022-12-08T04:19:11.682Z,99770.38
2022-12-08T04:21:42.042Z,99769.47
2022-12-08T04:24:10.488Z,99771.25
2022-12-08T04:26:38.608Z,99766.88
2022-12-08T04:29:10.558Z,99766.00
2022-12-08T04:31:38.839Z,99760.75
2022-12-08T04:34:06.805Z,99755.53
2022-12-08T04:36:34.867Z,99754.59
2022-12-08T04:39:02.987Z,99759.03
2022-12-08T04:41:31.115Z,99749.44
2022-12-08T04:44:01.769Z,99749.41
2022-12-08T04:46:31.320Z,99752.91
2022-12-08T04:48:59.665Z,99755.50
2022-12-08T04:51:32.101Z,99749.41
2022-12-08T04:54:00.619Z,99759.03
2022-12-08T04:56:28.682Z,99760.78
2022-12-08T04:58:56.644Z,99758.19
2022-12-08T05:01:27.330Z,99754.66
2022-12-08T05:03:56.858Z,99754.69
2022-12-08T05:06:24.932Z,99756.44
2022-12-08T05:08:53.070Z,99747.66
2022-12-08T05:11:21.223Z,99745.91
2022-12-08T05:13:49.363Z,99751.19
2022-12-08T05:16:17.719Z,99744.19
2022-12-08T05:18:46.239Z,99751.19
2022-12-08T05:21:20.439Z,99751.19
2022-12-08T05:23:48.401Z,99741.53
2022-12-08T05:26:16.583Z,99751.19
2022-12-08T05:28:44.750Z,99754.69
2022-12-08T05:31:13.528Z,99746.75
2022-12-08T05:33:42.348Z,99737.97
2022-12-08T05:36:12.633Z,99746.75
2022-12-08T05:38:42.283Z,99747.63
2022-12-08T05:41:14.348Z,99742.34
2022-12-08T05:43:42.742Z,99743.19
2022-12-08T05:46:11.724Z,99737.09
2022-12-08T05:48:40.266Z,99744.97
2022-12-08T05:51:19.620Z,99737.06
2022-12-08T05:53:54.258Z,99737.94
2022-12-08T05:56:23.364Z,99736.16
2022-12-08T05:58:51.769Z,99730.84
2022-12-08T06:01:24.247Z,99728.25
2022-12-08T06:03:52.649Z,99730.88
2022-12-08T06:06:20.877Z,99739.56
2022-12-08T06:08:51.837Z,99737.81
2022-12-08T06:11:23.246Z,99737.81
2022-12-08T06:13:52.170Z,99744.94
2022-12-08T06:16:20.978Z,99732.72
2022-12-08T06:18:49.653Z,99734.53
2022-12-08T06:21:18.121Z,99737.25
2022-12-08T06:23:49.381Z,99731.13
2022-12-08T06:26:18.703Z,99729.44
2022-12-08T06:28:49.480Z,99724.22
2022-12-08T06:31:20.309Z,99724.22
2022-12-08T06:33:48.825Z,99713.72
2022-12-08T06:36:22.001Z,99715.53
2022-12-08T06:38:50.252Z,99718.19
2022-12-08T06:41:20.663Z,99719.97
2022-12-08T06:43:50.184Z,99726.97
2022-12-08T06:48:37.658Z,99733.13
2022-12-08T06:51:09.823Z,99737.53
2022-12-08T06:53:39.041Z,99738.44
2022-12-08T06:56:08.428Z,99737.56
2022-12-08T06:58:36.855Z,99727.94
2022-12-08T07:01:07.190Z,99740.19
2022-12-08T07:03:37.135Z,99735.81
2022-12-08T07:06:06.420Z,99741.09
2022-12-08T07:08:35.488Z,99721.84
2022-12-08T07:11:08.433Z,99735.84
2022-12-08T07:13:36.497Z,99739.34
2022-12-08T07:16:07.087Z,99741.06
2022-12-08T07:18:37.048Z,99736.69
2022-12-08T07:21:07.657Z,99742.81
2022-12-08T07:23:35.932Z,99737.53
2022-12-08T07:26:09.484Z,99741.88
2022-12-08T07:28:39.818Z,99741.91
2022-12-08T07:31:09.309Z,99735.78
2022-12-08T07:33:41.275Z,99741.88
2022-12-08T07:36:09.805Z,99737.53
2022-12-08T07:38:38.208Z,99739.25
2022-12-08T07:41:12.899Z,99734.00
2022-12-08T07:43:42.277Z,99737.50
2022-12-08T07:46:13.244Z,99735.75
2022-12-08T07:48:43.310Z,99741.84
2022-12-08T07:51:12.817Z,99735.69
2022-12-08T07:53:42.688Z,99740.03
2022-12-08T07:56:12.192Z,99733.88
2022-12-08T07:58:45.791Z,99733.88
2022-12-08T08:01:24.006Z,99732.97
2022-12-08T08:03:54.395Z,99724.19
2022-12-08T08:06:25.823Z,99719.84
2022-12-08T08:08:54.083Z,99730.34
2022-12-08T08:11:22.333Z,99733.84
2022-12-08T08:13:50.798Z,99729.44
2022-12-08T08:16:22.327Z,99732.06
2022-12-08T08:18:57.582Z,99728.50
2022-12-08T08:24:13.866Z,99728.50
2022-12-08T08:26:41.871Z,99732.88
2022-12-08T08:29:10.047Z,99730.19
2022-12-08T08:31:38.243Z,99733.66
2022-12-08T08:34:09.209Z,99735.44
2022-12-08T08:36:37.152Z,99731.00
2022-12-08T08:39:09.757Z,99741.53
2022-12-08T08:41:41.455Z,99739.78
2022-12-08T08:44:10.319Z,99739.75
2022-12-08T08:46:38.354Z,99738.81
2022-12-08T08:49:06.546Z,99737.88
2022-12-08T08:51:36.171Z,99737.78
2022-12-08T08:54:04.395Z,99736.91
2022-12-08T08:56:34.384Z,99732.50
2022-12-08T08:59:03.051Z,99728.94
2022-12-08T09:01:31.766Z,99735.09
2022-12-08T09:04:00.327Z,99736.78
2022-12-08T09:06:29.419Z,99727.16
2022-12-08T09:08:59.146Z,99727.97
2022-12-08T09:11:27.190Z,99728.72
2022-12-08T09:13:56.178Z,99730.34
2022-12-08T09:16:25.331Z,99734.75
2022-12-08T09:18:53.739Z,99732.16
2022-12-08T09:21:26.702Z,99732.06
2022-12-08T09:23:57.209Z,99725.88
2022-12-08T09:26:28.135Z,99725.88
2022-12-08T09:28:57.474Z,99727.59
2022-12-08T09:31:26.115Z,99726.69
2022-12-08T09:33:54.190Z,99729.09
2022-12-08T09:36:22.860Z,99717.75
2022-12-08T09:38:51.684Z,99722.06
2022-12-08T09:41:36.831Z,99718.47
2022-12-08T09:44:27.948Z,99713.22
2022-12-08T09:47:01.598Z,99715.00
2022-12-08T09:49:38.020Z,99710.28
2022-12-08T09:52:15.433Z,99700.53
2022-12-08T09:54:43.662Z,99707.38
2022-12-08T09:57:18.086Z,99703.31
2022-12-08T09:59:50.949Z,99704.81
2022-12-08T10:02:24.134Z,99691.28
2022-12-08T10:04:56.577Z,99688.94
2022-12-08T10:07:33.310Z,99695.69
2022-12-08T10:10:06.311Z,99685.16
2022-12-08T10:12:44.114Z,99688.31
2022-12-08T10:15:38.137Z,99682.66
2022-12-08T10:18:16.004Z,99677.66
2022-12-08T10:20:47.490Z,99684.00
2022-12-08T10:23:24.516Z,99683.53
2022-12-08T10:25:57.704Z,99682.88
2022-12-08T10:28:27.085Z,99681.44
2022-12-08T10:30:55.266Z,99676.88
2022-12-08T10:33:25.721Z,99668.63
2022-12-08T10:35:59.340Z,99671.00
2022-12-08T10:38:30.849Z,99661.34
2022-12-08T10:41:05.578Z,99665.31
2022-12-08T10:43:37.917Z,99655.16
2022-12-08T10:46:13.653Z,99648.63
2022-12-08T10:48:53.265Z,99643.91
2022-12-08T10:51:30.898Z,99637.06
2022-12-08T10:53:59.416Z,99642.75
2022-12-08T10:56:31.570Z,99636.47
2022-12-08T10:59:14.393Z,99633.06
2022-12-08T11:01:46.732Z,99635.31
2022-12-08T11:04:19.106Z,99639.38
2022-12-08T11:06:49.094Z,99631.44
2022-12-08T11:09:38.745Z,99634.56
2022-12-08T11:12:14.030Z,99633.50
2022-12-08T11:14:58.995Z,99626.78
2022-12-08T11:17:29.733Z,99629.94
2022-12-08T11:20:01.745Z,99619.97
2022-12-08T11:22:34.115Z,99619.03
2022-12-08T11:25:11.846Z,99609.38
2022-12-08T11:27:43.403Z,99612.22
2022-12-08T11:30:17.612Z,99610.72
2022-12-08T11:32:47.865Z,99606.19
2022-12-08T11:35:23.757Z,99594.59
2022-12-08T11:37:52.591Z,99594.72
2022-12-08T11:40:27.070Z,99605.56
2022-12-08T11:43:09.605Z,99599.69
2022-12-08T11:45:42.511Z,99599.25
2022-12-08T11:49:39.729Z,99585.66
2022-12-08T11:52:17.860Z,99583.03
2022-12-08T11:54:52.997Z,99580.75
2022-12-08T11:57:24.181Z,99572.50
2022-12-08T11:59:53.566Z,99579.34
2022-12-08T12:02:25.407Z,99569.69
2022-12-08T12:05:00.853Z,99572.59
2022-12-08T12:07:54.397Z,99574.91
2022-12-08T12:10:48.708Z,99576.34
2022-12-08T12:13:37.618Z,99568.41
2022-12-08T12:16:33.813Z,99565.06
2022-12-08T12:19:05.875Z,99563.44
2022-12-08T12:21:40.408Z,99558.31
2022-12-08T12:24:15.341Z,99558.41
2022-12-08T12:26:56.443Z,99557.44
2022-12-08T12:29:27.693Z,99558.66
2022-12-08T12:31:58.372Z,99558.25
2022-12-08T12:34:29.568Z,99556.34
2022-12-08T12:37:17.609Z,99530.97
2022-12-08T12:39:56.308Z,99557.34
2022-12-08T12:42:39.052Z,99545.63
2022-12-08T12:45:30.883Z,99547.41
2022-12-08T12:48:30.811Z,99549.75
2022-12-08T12:50:59.292Z,99548.38
2022-12-08T12:53:52.096Z,99546.63
2022-12-08T12:56:49.588Z,99545.25
2022-12-08T12:59:55.202Z,99545.38
2022-12-08T13:02:26.255Z,99541.63
2022-12-08T13:04:58.815Z,99539.81
2022-12-08T13:07:29.784Z,99536.22
2022-12-08T13:10:03.774Z,99544.09
2022-12-08T13:12:34.893Z,99539.03
2022-12-08T13:15:06.304Z,99539.09
2022-12-08T13:17:38.300Z,99534.75
2022-12-08T13:20:08.480Z,99528.47
2022-12-08T13:22:59.101Z,99537.13
2022-12-08T13:25:52.382Z,99531.00
2022-12-08T13:28:24.451Z,99523.94
2022-12-08T13:30:53.777Z,99520.25
2022-12-08T13:33:34.739Z,99521.13
2022-12-08T13:36:23.588Z,99521.78
2022-12-08T13:38:57.075Z,99521.00
2022-12-08T13:41:35.874Z,99520.25
2022-12-08T13:44:57.162Z,99520.31
2022-12-08T13:58:36.400Z,99515.75
2022-12-08T14:01:08.886Z,99509.63
2022-12-08T14:04:04.604Z,99511.72
2022-12-08T14:06:38.410Z,99503.91
2022-12-08T14:09:11.546Z,99514.56
2022-12-08T14:11:42.473Z,99521.88
2022-12-08T14:14:32.511Z,99515.75
2022-12-08T14:17:08.608Z,99520.09
2022-12-08T14:19:37.253Z,99507.94
2022-12-08T14:22:14.254Z,99516.53
2022-12-08T14:24:46.052Z,99524.41
2022-12-08T14:27:18.069Z,99531.63
2022-12-08T14:29:52.239Z,99528.97
2022-12-08T14:32:23.937Z,99521.03
2022-12-08T14:35:00.563Z,99527.28
2022-12-08T14:37:31.903Z,99520.09
2022-12-08T14:40:04.161Z,99516.78
2022-12-08T14:42:32.455Z,99521.19
2022-12-08T14:45:05.019Z,99518.75
2022-12-08T14:47:35.689Z,99519.78
2022-12-08T14:50:27.083Z,99527.81
2022-12-08T14:52:56.487Z,99520.97
2022-12-08T14:55:28.305Z,99527.25
2022-12-08T14:57:58.800Z,99523.84
2022-12-08T15:00:28.431Z,99538.81
2022-12-08T15:02:58.204Z,99527.44
2022-12-08T15:05:32.070Z,99530.94
2022-12-08T15:08:04.889Z,99523.13
2022-12-08T15:10:38.013Z,99517.06
2022-12-08T15:13:22.797Z,99522.41
2022-12-08T15:15:52.802Z,99515.53
2022-12-08T15:18:31.513Z,99527.84
2022-12-08T15:21:05.280Z,99529.72
2022-12-08T15:23:42.550Z,99512.25
2022-12-08T15:26:21.382Z,99528.94
2022-12-08T15:28:49.424Z,99527.25
2022-12-08T15:31:20.887Z,99528.09
2022-12-08T15:33:49.280Z,99525.44
2022-12-08T15:36:19.961Z,99524.47
2022-12-08T15:38:49.392Z,99527.09
2022-12-08T15:41:17.599Z,99523.56
2022-12-08T15:43:48.088Z,99521.81
2022-12-08T15:46:16.081Z,99521.78
2022-12-08T15:48:44.438Z,99527.03
2022-12-08T15:51:12.364Z,99514.75
2022-12-08T15:53:42.670Z,99512.09
2022-12-08T15:56:30.106Z,99520.81
2022-12-08T15:58:58.808Z,99525.19
2022-12-08T16:01:29.222Z,99523.44
2022-12-08T16:04:59.896Z,99512.03
2022-12-08T16:07:20.396Z,99520.81
2022-12-08T16:09:41.862Z,99522.56
2022-12-08T16:13:06.952Z,99525.19
2022-12-08T16:18:16.531Z,99525.25
2022-12-08T16:21:07.599Z,99523.53
2022-12-08T16:23:48.239Z,99520.94
2022-12-08T16:26:44.327Z,99508.66
2022-12-08T16:29:08.784Z,99519.16
2022-12-08T16:31:37.758Z,99513.03
2022-12-08T16:34:06.269Z,99511.28
2022-12-08T16:36:36.994Z,99517.44
2022-12-08T16:39:05.150Z,99515.75
2022-12-08T16:41:50.947Z,99511.38
2022-12-08T16:44:20.384Z,99523.72
2022-12-08T16:46:48.333Z,99511.41
2022-12-08T16:50:37.597Z,99514.09
2022-12-08T16:53:09.003Z,99515.00
2022-12-08T16:55:37.158Z,99508.88
2022-12-08T16:58:05.928Z,99508.91
2022-12-08T17:00:36.889Z,99515.03
2022-12-08T17:03:06.129Z,99511.53
2022-12-08T17:05:34.390Z,99512.44
2022-12-08T17:08:06.983Z,99515.94
2022-12-08T17:10:39.803Z,99503.69
2022-12-08T17:13:08.094Z,99504.59
2022-12-08T17:15:41.479Z,99501.06
2022-12-08T17:18:12.287Z,99501.06
2022-12-08T17:20:40.630Z,99501.06
2022-12-08T17:23:10.142Z,99497.56
2022-12-08T17:25:38.287Z,99501.06
2022-12-08T17:28:06.395Z,99500.19
2022-12-08T17:30:34.853Z,99493.22
2022-12-08T17:33:03.124Z,99494.09
2022-12-08T17:35:31.729Z,99501.97
2022-12-08T17:37:59.727Z,99497.66
2022-12-08T17:40:31.415Z,99499.47
2022-12-08T17:42:59.391Z,99504.72
2022-12-08T17:45:27.719Z,99499.50
2022-12-08T17:48:01.489Z,99498.63
2022-12-08T17:50:29.905Z,99495.16
2022-12-08T17:52:57.989Z,99500.41
2022-12-08T17:55:26.021Z,99498.66
2022-12-08T17:57:58.500Z,99501.31
2022-12-08T18:00:27.224Z,99496.09
2022-12-08T18:02:55.971Z,99495.25
2022-12-08T18:05:24.628Z,99497.91
2022-12-08T18:07:55.487Z,99490.91
2022-12-08T18:10:26.566Z,99489.19
2022-12-08T18:12:55.790Z,99497.97
2022-12-08T18:15:28.508Z,99493.59
2022-12-08T18:17:59.352Z,99492.75
2022-12-08T18:20:28.015Z,99498.91
2022-12-08T18:22:56.252Z,99495.41
2022-12-08T18:25:24.350Z,99503.28
2022-12-08T18:27:52.599Z,99497.19
2022-12-08T18:30:21.000Z,99494.56
2022-12-08T18:32:55.744Z,99492.84
2022-12-08T18:35:28.739Z,99497.19
2022-12-08T18:37:57.003Z,99499.00
2022-12-08T18:40:27.155Z,99497.25
2022-12-08T18:42:55.527Z,99489.38
2022-12-08T18:45:23.862Z,99493.78
2022-12-08T18:47:53.594Z,99492.88
2022-12-08T18:50:21.772Z,99492.03
2022-12-08T18:52:50.205Z,99498.19
2022-12-08T18:55:18.268Z,99498.19
2022-12-08T18:57:46.824Z,99498.19
2022-12-08T19:00:17.760Z,99497.34
2022-12-08T19:02:46.463Z,99496.50
2022-12-08T19:05:16.360Z,99496.56
2022-12-08T19:07:45.711Z,99494.84
2022-12-08T19:10:14.261Z,99497.56
2022-12-08T19:12:43.043Z,99497.66
2022-12-08T19:15:13.677Z,99493.34
2022-12-08T19:17:41.900Z,99504.78
2022-12-08T19:20:11.062Z,99492.59
2022-12-08T19:22:42.910Z,99497.00
2022-12-08T19:25:10.972Z,99493.56
2022-12-08T19:27:38.958Z,99492.75
2022-12-08T19:30:08.537Z,99493.63
2022-12-08T19:32:36.818Z,99496.28
2022-12-08T19:35:07.425Z,99494.59
2022-12-08T19:37:36.428Z,99497.19
2022-12-08T19:40:29.440Z,99500.66
2022-12-08T19:43:15.051Z,99503.28
2022-12-08T19:45:45.900Z,99494.53
2022-12-08T19:48:14.568Z,99497.16
2022-12-08T19:50:42.820Z,99492.75
2022-12-08T19:53:13.131Z,99498.91
2022-12-08T19:55:43.634Z,99497.09
2022-12-08T19:58:12.340Z,99488.38
2022-12-08T20:00:41.415Z,99485.75
2022-12-08T20:03:15.173Z,99484.00
2022-12-08T20:05:44.356Z,99476.16
2022-12-08T20:08:12.795Z,99480.53
2022-12-08T20:10:43.973Z,99484.03
2022-12-08T20:13:30.649Z,99483.16
2022-12-08T20:15:59.004Z,99473.50
2022-12-08T20:18:28.609Z,99476.13
2022-12-08T20:20:59.089Z,99477.00
2022-12-08T20:23:27.227Z,99474.38
2022-12-08T20:25:57.103Z,99475.25
2022-12-08T20:28:25.494Z,99479.59
2022-12-08T20:30:54.182Z,99472.59
2022-12-08T20:33:22.467Z,99475.22
2022-12-08T20:35:59.816Z,99474.34
2022-12-08T20:38:28.173Z,99475.22
2022-12-08T20:40:58.731Z,99465.59
2022-12-08T20:43:28.922Z,99472.59
2022-12-08T20:45:57.206Z,99475.22
2022-12-08T20:48:25.381Z,99475.25
2022-12-08T20:50:55.073Z,99477.88
2022-12-08T20:53:23.196Z,99477.84
2022-12-08T20:55:51.288Z,99476.06
2022-12-08T20:58:20.908Z,99476.06
2022-12-08T21:00:49.886Z,99482.19
2022-12-08T21:03:18.683Z,99482.19
2022-12-08T21:05:51.476Z,99476.94
2022-12-08T21:08:20.583Z,99481.28
2022-12-08T21:10:54.772Z,99483.00
2022-12-08T21:13:24.472Z,99475.16
2022-12-08T21:15:53.356Z,99476.91
2022-12-08T21:18:24.571Z,99476.91
2022-12-08T21:21:05.327Z,99477.78
2022-12-08T21:23:34.437Z,99469.03
2022-12-08T21:26:03.505Z,99478.63
2022-12-08T21:28:33.319Z,99473.41
2022-12-08T21:31:02.036Z,99474.25
2022-12-08T21:33:30.402Z,99465.53
2022-12-08T21:36:04.376Z,99476.84
2022-12-08T21:38:32.689Z,99471.59
2022-12-08T21:41:03.847Z,99482.09
2022-12-08T21:43:33.540Z,99475.09
2022-12-08T21:46:02.124Z,99481.25
2022-12-08T21:51:42.281Z,99480.38
2022-12-08T21:54:18.274Z,99486.50
2022-12-08T21:56:48.793Z,99479.50
2022-12-08T21:59:17.367Z,99482.13
2022-12-08T22:01:46.133Z,99478.63
2022-12-08T22:04:18.057Z,99479.50
2022-12-08T22:06:48.115Z,99481.25
2022-12-08T22:09:16.526Z,99480.34
2022-12-08T22:11:45.328Z,99483.00
2022-12-08T22:14:15.959Z,99478.66
2022-12-08T22:16:44.666Z,99479.50
2022-12-08T22:19:13.217Z,99472.53
2022-12-08T22:21:42.035Z,99470.78
2022-12-08T22:24:11.853Z,99475.19
2022-12-08T22:26:40.168Z,99474.25
2022-12-08T22:29:11.072Z,99438.53
2022-12-08T22:31:39.331Z,99477.75
2022-12-08T22:34:07.481Z,99478.63
2022-12-08T22:36:36.098Z,99471.63
2022-12-08T22:39:04.960Z,99475.97
2022-12-08T22:41:34.427Z,99481.25
2022-12-08T22:44:07.168Z,99475.13
2022-12-08T22:46:38.063Z,99476.88
2022-12-08T22:49:06.457Z,99478.63
2022-12-08T22:51:36.785Z,99469.03
2022-12-08T22:54:05.505Z,99462.00
2022-12-08T22:56:37.181Z,99469.91
2022-12-08T22:59:05.608Z,99461.19
2022-12-08T23:01:34.609Z,99459.44
2022-12-08T23:04:05.195Z,99460.31
2022-12-08T23:06:36.264Z,99454.19
2022-12-08T23:09:10.480Z,99454.19
2022-12-08T23:11:41.799Z,99442.78
2022-12-08T23:14:10.295Z,99447.16
2022-12-08T23:16:38.873Z,99447.16
2022-12-08T23:19:07.201Z,99456.75
2022-12-08T23:21:35.566Z,99438.41
2022-12-08T23:24:04.297Z,99444.53
2022-12-08T23:26:35.346Z,99438.44
2022-12-08T23:29:05.911Z,99439.25
2022-12-08T23:31:34.366Z,99439.22
2022-12-08T23:34:03.503Z,99436.50
2022-12-08T23:36:32.014Z,99440.88
2022-12-08T23:39:00.268Z,99430.34
2022-12-08T23:41:28.553Z,99425.13
2022-12-08T23:43:57.052Z,99425.16
2022-12-08T23:46:26.731Z,99420.78
2022-12-08T23:48:55.152Z,99413.84
2022-12-08T23:51:25.647Z,99417.31
2022-12-08T23:53:56.675Z,99410.34
2022-12-08T23:56:30.008Z,99408.59
2022-12-08T23:58:59.470Z,99404.22
